Time;durP1;ratioP1;P1;durP2;ratioP2;P2;SDS_P1;SDS_P2;PMS_P1;PMS_P2;Temp;Humidity;BMP_temperature;BMP_pressure;BME280_temperature;BME280_humidity;BME280_pressure;Samples;Min_cycle;Max_cycle;Signal;HPM_P1;HPM_P2
2024/01/18 00:00:25;;;;;;;633.78;84.95;;;;;;;;;;10541445;28;20103;-74
2024/01/18 00:05:26;;;;;;;636.58;82.68;;;;;;;;;;10523831;28;20016;-75
2024/01/18 00:10:29;;;;;;;627.95;81.63;;;;;;;;;;10541929;28;20020;-74
2024/01/18 00:15:29;;;;;;;647.13;90.38;;;;;;;;;;10541500;28;20042;-74
2024/01/18 00:20:29;;;;;;;642.97;84.00;;;;;;;;;;10541220;28;20059;-74
2024/01/18 00:25:30;;;;;;;630.40;79.50;;;;;;;;;;10541172;28;20024;-74
2024/01/18 00:30:30;;;;;;;636.55;80.85;;;;;;;;;;10525787;28;20016;-75
2024/01/18 00:35:30;;;;;;;623.15;76.32;;;;;;;;;;10537197;28;20028;-75
2024/01/18 00:40:31;;;;;;;624.85;76.18;;;;;;;;;;10540895;28;20266;-75
2024/01/18 00:45:31;;;;;;;622.50;74.05;;;;;;;;;;10542019;28;20093;-75
2024/01/18 00:50:31;;;;;;;615.67;73.88;;;;;;;;;;10533187;28;20015;-74
2024/01/18 00:55:32;;;;;;;621.72;75.95;;;;;;;;;;10555287;28;20024;-75
2024/01/18 01:00:32;;;;;;;609.42;72.25;;;;;;;;;;10554849;28;20020;-75
2024/01/18 01:05:33;;;;;;;605.78;71.32;;;;;;;;;;10536647;28;20038;-74
2024/01/18 01:10:33;;;;;;;621.90;75.63;;;;;;;;;;10536996;28;20024;-74
2024/01/18 01:15:33;;;;;;;623.15;75.78;;;;;;;;;;10554360;28;20030;-75
2024/01/18 01:20:33;;;;;;;619.25;74.90;;;;;;;;;;10554669;28;20054;-76
2024/01/18 01:25:34;;;;;;;610.22;72.45;;;;;;;;;;10539118;28;20013;-74
2024/01/18 01:30:34;;;;;;;613.88;73.18;;;;;;;;;;10528319;28;20190;-74
2024/01/18 01:35:34;;;;;;;596.67;69.20;;;;;;;;;;10554173;28;20053;-74
2024/01/18 01:40:35;;;;;;;599.78;70.13;;;;;;;;;;10554740;28;20385;-74
2024/01/18 01:45:35;;;;;;;609.88;73.47;;;;;;;;;;10554364;28;20047;-74
2024/01/18 01:50:35;;;;;;;598.85;70.50;;;;;;;;;;10553664;28;20095;-74
2024/01/18 01:55:36;;;;;;;611.15;73.18;;;;;;;;;;10554050;28;20206;-74
2024/01/18 02:00:36;;;;;;;612.28;74.05;;;;;;;;;;10550355;28;20027;-75
2024/01/18 02:05:37;;;;;;;602.33;71.50;;;;;;;;;;10529153;28;20254;-74
2024/01/18 02:10:37;;;;;;;602.60;71.45;;;;;;;;;;10546952;28;20040;-75
2024/01/18 02:15:38;;;;;;;603.17;72.22;;;;;;;;;;10546776;28;20028;-75
2024/01/18 02:20:38;;;;;;;605.28;72.10;;;;;;;;;;10546225;28;20210;-75
2024/01/18 02:25:38;;;;;;;605.65;72.00;;;;;;;;;;10528262;28;20083;-75
2024/01/18 02:30:39;;;;;;;605.58;71.85;;;;;;;;;;10546017;28;20310;-74
2024/01/18 02:35:39;;;;;;;597.90;69.95;;;;;;;;;;10527658;28;20047;-74
2024/01/18 02:40:39;;;;;;;585.97;66.60;;;;;;;;;;10546240;28;20069;-73
2024/01/18 02:45:39;;;;;;;573.03;64.47;;;;;;;;;;10521200;28;20083;-75
2024/01/18 02:50:41;;;;;;;570.28;64.28;;;;;;;;;;10540964;28;20292;-74
2024/01/18 02:55:41;;;;;;;567.25;63.95;;;;;;;;;;10544929;28;20043;-73
2024/01/18 03:00:42;;;;;;;588.15;67.47;;;;;;;;;;10544800;28;20227;-74
2024/01/18 03:05:42;;;;;;;577.33;65.55;;;;;;;;;;10544525;28;20020;-74
2024/01/18 03:16:02;;;;;;;575.78;65.20;;;;;;;;;;10366380;28;20073;-84
2024/01/18 03:21:06;;;;;;;558.17;62.30;;;;;;;;;;10347556;28;20097;-83
2024/01/18 03:26:07;;;;;;;550.65;62.75;;;;;;;;;;10364387;28;20321;-80
2024/01/18 03:31:12;;;;;;;601.92;69.97;;;;;;;;;;10350166;28;20610;-81
2024/01/18 03:36:12;;;;;;;589.80;67.57;;;;;;;;;;10364322;28;20014;-77
2024/01/18 03:41:14;;;;;;;577.15;65.15;;;;;;;;;;10347140;28;20025;-80
2024/01/18 03:46:15;;;;;;;563.00;63.30;;;;;;;;;;10346780;28;20113;-83
2024/01/18 03:51:16;;;;;;;578.23;66.30;;;;;;;;;;10364756;28;20010;-82
2024/01/18 03:56:16;;;;;;;587.00;66.50;;;;;;;;;;10345759;28;20261;-79
2024/01/18 04:01:16;;;;;;;599.55;70.15;;;;;;;;;;10362894;28;20029;-83
2024/01/18 04:06:17;;;;;;;615.83;73.97;;;;;;;;;;10350542;28;20400;-81
2024/01/18 04:11:17;;;;;;;626.55;76.95;;;;;;;;;;10362000;28;20120;-77
2024/01/18 04:16:18;;;;;;;606.03;71.10;;;;;;;;;;10345756;28;20103;-81
2024/01/18 04:21:18;;;;;;;597.40;68.80;;;;;;;;;;10367447;28;20036;-76
2024/01/18 04:26:19;;;;;;;587.83;67.17;;;;;;;;;;10361734;28;20072;-76
2024/01/18 04:31:20;;;;;;;598.40;70.25;;;;;;;;;;10356809;28;20257;-82
2024/01/18 04:36:30;;;;;;;612.72;74.03;;;;;;;;;;10370540;28;20184;-79
2024/01/18 04:41:30;;;;;;;609.35;72.57;;;;;;;;;;10347740;28;20022;-79
2024/01/18 04:46:31;;;;;;;609.75;72.28;;;;;;;;;;10346975;28;20088;-81
2024/01/18 04:51:31;;;;;;;615.05;73.95;;;;;;;;;;10361704;28;20468;-82
2024/01/18 04:56:31;;;;;;;618.38;75.50;;;;;;;;;;10359630;28;20042;-77
2024/01/18 05:01:37;;;;;;;608.37;72.17;;;;;;;;;;10360920;28;20034;-80
2024/01/18 05:06:37;;;;;;;608.22;71.72;;;;;;;;;;10358182;28;20651;-78
2024/01/18 05:11:37;;;;;;;586.17;67.03;;;;;;;;;;10343831;28;20053;-84
2024/01/18 05:16:43;;;;;;;617.17;73.20;;;;;;;;;;10311256;28;20026;-78
2024/01/18 05:21:43;;;;;;;626.15;78.13;;;;;;;;;;10348412;28;20022;-81
2024/01/18 05:26:45;;;;;;;629.42;79.60;;;;;;;;;;10331030;28;20033;-78
2024/01/18 05:31:45;;;;;;;624.85;78.10;;;;;;;;;;10361164;28;20014;-79
2024/01/18 05:36:46;;;;;;;595.38;67.60;;;;;;;;;;10365341;28;20025;-78
2024/01/18 05:41:46;;;;;;;538.08;59.90;;;;;;;;;;10364166;28;20061;-77
2024/01/18 05:46:46;;;;;;;531.08;60.00;;;;;;;;;;10367939;28;20472;-79
2024/01/18 05:51:47;;;;;;;525.95;59.42;;;;;;;;;;10368535;28;20032;-83
2024/01/18 05:56:49;;;;;;;574.78;66.43;;;;;;;;;;10367099;28;20047;-82
2024/01/18 06:01:50;;;;;;;547.95;61.63;;;;;;;;;;10341067;28;20058;-79
2024/01/18 06:06:51;;;;;;;547.90;61.47;;;;;;;;;;10356162;28;20571;-78
2024/01/18 06:11:51;;;;;;;561.03;63.13;;;;;;;;;;10348337;28;20128;-79
2024/01/18 06:16:51;;;;;;;565.25;63.60;;;;;;;;;;10349091;28;20022;-79
2024/01/18 06:21:52;;;;;;;526.83;59.13;;;;;;;;;;10369243;28;20445;-83
2024/01/18 06:26:52;;;;;;;567.35;63.85;;;;;;;;;;10363295;28;20124;-80
2024/01/18 06:31:52;;;;;;;575.78;64.85;;;;;;;;;;10362726;28;20017;-82
2024/01/18 06:36:54;;;;;;;575.05;65.10;;;;;;;;;;10376898;28;20034;-82
2024/01/18 06:41:54;;;;;;;621.03;75.15;;;;;;;;;;10377372;28;20373;-81
2024/01/18 06:46:55;;;;;;;626.17;79.72;;;;;;;;;;10369518;28;20026;-79
2024/01/18 06:51:57;;;;;;;632.80;80.18;;;;;;;;;;10348223;28;20029;-83
2024/01/18 06:56:57;;;;;;;626.38;76.90;;;;;;;;;;10353430;28;20032;-80
2024/01/18 07:01:58;;;;;;;580.40;65.65;;;;;;;;;;10351169;28;20030;-81
2024/01/18 07:06:58;;;;;;;593.17;68.38;;;;;;;;;;10349817;28;20066;-79
2024/01/18 07:11:59;;;;;;;612.85;72.55;;;;;;;;;;10370645;28;20072;-78
2024/01/18 07:17:10;;;;;;;589.65;67.03;;;;;;;;;;10369645;28;20032;-81
2024/01/18 07:22:12;;;;;;;532.08;60.30;;;;;;;;;;10376641;28;20113;-79
2024/01/18 07:27:13;;;;;;;523.97;59.92;;;;;;;;;;10363055;28;20014;-81
2024/01/18 07:32:13;;;;;;;503.15;58.28;;;;;;;;;;10362890;28;20539;-78
2024/01/18 07:37:14;;;;;;;538.80;61.45;;;;;;;;;;10362681;28;20514;-78
2024/01/18 07:42:17;;;;;;;563.75;63.70;;;;;;;;;;10345581;28;20028;-80
2024/01/18 07:47:18;;;;;;;545.20;61.50;;;;;;;;;;10363450;28;20566;-78
2024/01/18 07:52:18;;;;;;;546.08;61.83;;;;;;;;;;10361687;28;20068;-80
2024/01/18 07:57:18;;;;;;;545.53;61.63;;;;;;;;;;10346967;28;20100;-80
2024/01/18 08:02:18;;;;;;;542.85;61.50;;;;;;;;;;10360913;28;20022;-80
2024/01/18 08:07:19;;;;;;;542.08;61.40;;;;;;;;;;10362187;28;20085;-78
2024/01/18 08:12:19;;;;;;;559.67;63.63;;;;;;;;;;10363866;28;20041;-77
2024/01/18 08:17:19;;;;;;;588.58;68.22;;;;;;;;;;10350647;28;20096;-79
2024/01/18 08:22:19;;;;;;;575.25;66.25;;;;;;;;;;10343397;28;20030;-81
2024/01/18 08:27:20;;;;;;;578.72;66.80;;;;;;;;;;10361568;28;20033;-80
2024/01/18 08:32:20;;;;;;;589.58;68.60;;;;;;;;;;10345083;28;20097;-79
2024/01/18 08:37:20;;;;;;;575.78;67.50;;;;;;;;;;10344330;28;20030;-80
2024/01/18 08:42:20;;;;;;;619.42;76.20;;;;;;;;;;10360900;28;20030;-82
2024/01/18 08:47:22;;;;;;;617.80;75.25;;;;;;;;;;10364774;28;20464;-83
2024/01/18 08:52:22;;;;;;;611.78;72.22;;;;;;;;;;10364501;28;20014;-77
2024/01/18 08:57:22;;;;;;;598.25;70.35;;;;;;;;;;10355054;28;20168;-78
2024/01/18 09:02:22;;;;;;;596.42;69.70;;;;;;;;;;10346828;28;20481;-78
2024/01/18 09:07:23;;;;;;;598.97;70.63;;;;;;;;;;10363843;28;20463;-80
2024/01/18 09:12:24;;;;;;;584.95;67.43;;;;;;;;;;10350882;28;20397;-81
2024/01/18 09:17:24;;;;;;;573.58;66.18;;;;;;;;;;10353595;28;20030;-79
2024/01/18 09:22:24;;;;;;;587.30;69.32;;;;;;;;;;10352127;28;20018;-82
2024/01/18 09:27:26;;;;;;;586.72;68.40;;;;;;;;;;10369125;28;20022;-82
2024/01/18 09:32:26;;;;;;;597.35;70.70;;;;;;;;;;10369043;28;20108;-81
2024/01/18 09:37:27;;;;;;;548.05;62.83;;;;;;;;;;10370569;28;20108;-83
2024/01/18 09:42:32;;;;;;;544.72;63.67;;;;;;;;;;10352105;28;20033;-79
2024/01/18 09:47:33;;;;;;;519.15;60.78;;;;;;;;;;10370232;28;20113;-87
2024/01/18 09:52:33;;;;;;;433.60;54.85;;;;;;;;;;10350468;28;20446;-79
2024/01/18 09:57:35;;;;;;;491.65;59.47;;;;;;;;;;10365682;28;20109;-80
2024/01/18 10:02:35;;;;;;;417.33;54.33;;;;;;;;;;10368057;28;20437;-80
2024/01/18 10:07:36;;;;;;;569.73;70.90;;;;;;;;;;10349192;28;20133;-79
2024/01/18 10:12:36;;;;;;;669.45;242.90;;;;;;;;;;10366485;28;20344;-79
2024/01/18 10:17:37;;;;;;;608.65;108.57;;;;;;;;;;10348847;28;20061;-79
2024/01/18 10:22:38;;;;;;;805.40;689.80;;;;;;;;;;10349294;28;20584;-82
2024/01/18 10:27:39;;;;;;;22.67;16.77;;;;;;;;;;10366811;28;20030;-78
2024/01/18 10:32:41;;;;;;;25.40;10.75;;;;;;;;;;10364449;28;20040;-79
2024/01/18 10:37:42;;;;;;;22.45;10.40;;;;;;;;;;10351520;28;20088;-81
2024/01/18 10:42:42;;;;;;;13.82;7.82;;;;;;;;;;10364526;28;20022;-79
2024/01/18 10:47:43;;;;;;;15.75;8.27;;;;;;;;;;10348503;28;20052;-78
2024/01/18 10:52:43;;;;;;;19.52;8.73;;;;;;;;;;10347812;28;20029;-78
2024/01/18 10:57:44;;;;;;;38.80;9.30;;;;;;;;;;10370767;28;20026;-86
2024/01/18 11:02:45;;;;;;;22.35;9.75;;;;;;;;;;10348699;28;20797;-82
2024/01/18 11:07:45;;;;;;;21.50;9.95;;;;;;;;;;10347301;28;20036;-78
2024/01/18 11:12:49;;;;;;;22.27;8.55;;;;;;;;;;10346618;28;20084;-80
2024/01/18 11:17:54;;;;;;;19.13;7.30;;;;;;;;;;10346506;28;20418;-81
2024/01/18 11:22:58;;;;;;;5.75;3.63;;;;;;;;;;10346537;28;20057;-81
2024/01/18 11:28:00;;;;;;;888.07;759.13;;;;;;;;;;10346126;28;20026;-80
2024/01/18 11:33:00;;;;;;;829.30;684.60;;;;;;;;;;10369789;28;20496;-79
2024/01/18 11:38:17;;;;;;;1143.55;999.90;;;;;;;;;;10337209;28;20088;-78
2024/01/18 11:43:17;;;;;;;835.97;747.33;;;;;;;;;;10356995;28;19905;-79
2024/01/18 11:48:18;;;;;;;;;;;;;;;;;;10345609;28;19914;-78
2024/01/18 11:53:18;;;;;;;;;;;;;;;;;;10367557;28;19913;-78
2024/01/18 11:58:20;;;;;;;833.75;732.92;;;;;;;;;;10362058;28;20041;-82
2024/01/18 12:03:21;;;;;;;994.22;888.67;;;;;;;;;;10350027;28;19912;-79
2024/01/18 12:08:21;;;;;;;1209.00;999.90;;;;;;;;;;10346326;28;20018;-77
2024/01/18 12:13:21;;;;;;;1260.68;999.90;;;;;;;;;;10359863;28;20042;-80
2024/01/18 12:18:22;;;;;;;1029.18;932.13;;;;;;;;;;10361312;28;20488;-75
2024/01/18 12:23:22;;;;;;;1243.17;999.90;;;;;;;;;;10344459;28;20021;-79
2024/01/18 12:28:22;;;;;;;1184.32;999.90;;;;;;;;;;10366423;28;20268;-80
2024/01/18 12:33:24;;;;;;;1099.80;992.20;;;;;;;;;;10346225;28;20021;-79
2024/01/18 12:38:24;;;;;;;962.42;864.58;;;;;;;;;;10373791;28;20386;-80
2024/01/18 12:43:25;;;;;;;1106.63;998.03;;;;;;;;;;10335145;28;20125;-79
2024/01/18 12:48:27;;;;;;;1097.60;998.60;;;;;;;;;;10351197;28;20108;-80
2024/01/18 12:53:27;;;;;;;1075.22;969.25;;;;;;;;;;10359722;28;20108;-77
2024/01/18 12:58:27;;;;;;;1055.50;951.42;;;;;;;;;;10349171;28;20080;-81
2024/01/18 13:03:27;;;;;;;1065.30;967.63;;;;;;;;;;10359564;28;20026;-78
2024/01/18 13:08:28;;;;;;;1123.95;999.15;;;;;;;;;;10359776;28;20779;-81
2024/01/18 13:13:28;;;;;;;866.10;720.22;;;;;;;;;;10362064;28;20120;-77
2024/01/18 13:18:28;;;;;;;1103.13;989.83;;;;;;;;;;10388972;28;20111;-86
2024/01/18 13:23:30;;;;;;;1123.40;999.90;;;;;;;;;;10355788;28;20028;-78
2024/01/18 13:28:31;;;;;;;884.42;803.90;;;;;;;;;;10342700;28;20117;-78
2024/01/18 13:33:31;;;;;;;9.85;3.42;;;;;;;;;;10344865;28;20025;-81
2024/01/18 13:38:33;;;;;;;21.52;19.52;;;;;;;;;;10360446;28;20022;-81
2024/01/18 13:43:34;;;;;;;13.27;12.02;;;;;;;;;;10336168;28;20111;-76
2024/01/18 13:48:35;;;;;;;324.85;302.70;;;;;;;;;;10355361;28;20049;-78
2024/01/18 13:53:35;;;;;;;3.83;2.72;;;;;;;;;;10357480;28;20523;-77
2024/01/18 13:58:36;;;;;;;18.10;13.52;;;;;;;;;;10346855;28;20414;-79
2024/01/18 14:03:37;;;;;;;285.40;265.23;;;;;;;;;;10349268;28;20018;-78
2024/01/18 14:08:37;;;;;;;949.03;857.85;;;;;;;;;;10365886;28;20412;-79
2024/01/18 14:13:38;;;;;;;29.60;27.00;;;;;;;;;;10367163;28;20064;-77
2024/01/18 14:18:38;;;;;;;257.60;240.80;;;;;;;;;;10348638;28;20386;-77
2024/01/18 14:23:38;;;;;;;9.43;8.73;;;;;;;;;;10349026;28;20415;-79
2024/01/18 14:28:39;;;;;;;279.88;261.55;;;;;;;;;;10354224;28;20049;-76
2024/01/18 14:33:39;;;;;;;668.70;617.10;;;;;;;;;;10354622;28;20025;-77
2024/01/18 14:38:39;;;;;;;1020.33;937.95;;;;;;;;;;10354406;28;20024;-79
2024/01/18 14:43:58;;;;;;;1067.63;961.70;;;;;;;;;;10380563;28;20459;-78
2024/01/18 14:48:59;;;;;;;770.05;708.97;;;;;;;;;;10355056;28;20037;-79
2024/01/18 14:53:59;;;;;;;938.00;808.10;;;;;;;;;;10345504;28;20030;-77
2024/01/18 14:58:59;;;;;;;691.92;447.17;;;;;;;;;;10371561;28;20452;-78
2024/01/18 15:03:59;;;;;;;999.95;896.00;;;;;;;;;;10362712;28;20497;-80
2024/01/18 15:08:59;;;;;;;;;;;;;;;;;;10349158;28;20089;-78
2024/01/18 15:14:00;;;;;;;761.30;489.10;;;;;;;;;;10366117;28;20454;-77
2024/01/18 15:19:00;;;;;;;711.50;524.78;;;;;;;;;;10360100;28;20496;-82
2024/01/18 15:24:00;;;;;;;886.93;771.30;;;;;;;;;;10362369;28;20036;-79
2024/01/18 15:29:00;;;;;;;242.60;94.60;;;;;;;;;;10353363;28;20121;-79
2024/01/18 15:34:04;;;;;;;;;;;;;;;;;;10364833;28;20296;-82
2024/01/18 15:39:04;;;;;;;;;;;;;;;;;;10364109;28;20038;-80
2024/01/18 15:44:04;;;;;;;;;;;;;;;;;;10366935;28;19912;-77
2024/01/18 15:49:05;;;;;;;143.40;31.65;;;;;;;;;;10362103;28;25138;-80
2024/01/18 15:54:05;;;;;;;766.85;588.00;;;;;;;;;;10361569;28;20055;-79
2024/01/18 15:59:06;;;;;;;1039.40;935.20;;;;;;;;;;10362627;28;20039;-79
2024/01/18 16:04:08;;;;;;;265.83;36.45;;;;;;;;;;10345134;28;19932;-84
2024/01/18 16:09:08;;;;;;;1375.32;999.90;;;;;;;;;;10343563;28;20411;-78
2024/01/18 16:14:08;;;;;;;1098.20;988.63;;;;;;;;;;10364478;28;20057;-78
2024/01/18 16:19:09;;;;;;;1105.40;997.20;;;;;;;;;;10345884;28;20448;-79
2024/01/18 16:24:12;;;;;;;1066.95;959.42;;;;;;;;;;10346240;28;20013;-78
2024/01/18 16:29:12;;;;;;;443.55;54.40;;;;;;;;;;10334252;28;20022;-83
2024/01/18 16:34:12;;;;;;;810.38;682.35;;;;;;;;;;10348810;28;19912;-81
2024/01/18 16:39:12;;;;;;;1041.38;937.03;;;;;;;;;;10328992;28;20080;-82
2024/01/18 16:44:13;;;;;;;739.17;471.48;;;;;;;;;;10325353;28;20496;-78
2024/01/18 16:49:14;;;;;;;682.08;181.50;;;;;;;;;;10335009;28;20022;-82
2024/01/18 16:54:21;;;;;;;865.95;759.70;;;;;;;;;;10352205;28;20018;-81
2024/01/18 16:59:21;;;;;;;224.87;31.63;;;;;;;;;;10350035;28;20456;-80
2024/01/18 17:04:21;;;;;;;602.92;272.50;;;;;;;;;;10331627;28;20018;-79
2024/01/18 17:09:22;;;;;;;354.10;48.60;;;;;;;;;;10345759;28;20111;-77
2024/01/18 17:14:22;;;;;;;743.27;437.70;;;;;;;;;;10349674;28;20042;-78
2024/01/18 17:19:22;;;;;;;371.05;50.30;;;;;;;;;;10335123;28;20036;-78
2024/01/18 17:24:25;;;;;;;770.55;547.10;;;;;;;;;;10332773;28;20508;-81
2024/01/18 17:29:26;;;;;;;1056.13;950.38;;;;;;;;;;10348570;28;20022;-79
2024/01/18 17:34:28;;;;;;;1103.43;994.08;;;;;;;;;;10334872;28;20026;-82
2024/01/18 17:39:32;;;;;;;837.67;695.55;;;;;;;;;;10349772;28;20025;-78
2024/01/18 17:44:32;;;;;;;921.25;822.03;;;;;;;;;;10354282;28;20026;-80
2024/01/18 17:49:32;;;;;;;918.10;817.40;;;;;;;;;;10328834;28;20025;-82
2024/01/18 17:54:33;;;;;;;1052.90;945.30;;;;;;;;;;10370119;28;20220;-78
2024/01/18 17:59:33;;;;;;;1060.28;954.28;;;;;;;;;;10334082;28;20026;-84
2024/01/18 18:04:34;;;;;;;1069.85;961.13;;;;;;;;;;10352479;28;20021;-79
2024/01/18 18:09:35;;;;;;;1072.10;965.83;;;;;;;;;;10347629;28;20022;-78
2024/01/18 18:14:36;;;;;;;1075.50;967.00;;;;;;;;;;10339350;28;20042;-78
2024/01/18 18:19:38;;;;;;;1058.35;952.78;;;;;;;;;;10329354;28;20030;-79
2024/01/18 18:24:38;;;;;;;1048.88;942.30;;;;;;;;;;10330473;28;20029;-78
2024/01/18 18:29:39;;;;;;;1071.35;975.05;;;;;;;;;;10329976;28;20022;-77
2024/01/18 18:34:39;;;;;;;1054.07;957.17;;;;;;;;;;10336864;28;20104;-82
2024/01/18 18:39:39;;;;;;;1083.15;981.10;;;;;;;;;;10330104;28;20073;-76
2024/01/18 18:44:40;;;;;;;1080.80;973.42;;;;;;;;;;10336599;28;20018;-82
2024/01/18 18:49:40;;;;;;;1080.05;971.25;;;;;;;;;;10327067;28;20033;-81
2024/01/18 18:54:41;;;;;;;1098.78;987.88;;;;;;;;;;10329734;28;20021;-82
2024/01/18 18:59:41;;;;;;;1068.30;959.05;;;;;;;;;;10328281;28;20032;-84
2024/01/18 19:04:42;;;;;;;1083.55;973.20;;;;;;;;;;10351457;28;20121;-82
2024/01/18 19:09:42;;;;;;;1075.05;965.33;;;;;;;;;;10329330;28;20036;-80
2024/01/18 19:14:44;;;;;;;1066.45;957.60;;;;;;;;;;10346755;28;20053;-82
2024/01/18 19:19:44;;;;;;;1080.30;971.67;;;;;;;;;;10319174;28;20698;-79
2024/01/18 19:24:47;;;;;;;1091.30;981.00;;;;;;;;;;10332224;28;20108;-81
2024/01/18 19:29:47;;;;;;;1093.30;983.00;;;;;;;;;;10316277;28;20041;-81
2024/01/18 19:34:52;;;;;;;1081.43;971.33;;;;;;;;;;10344299;28;20040;-81
2024/01/18 19:39:54;;;;;;;1080.30;970.88;;;;;;;;;;10344796;28;20022;-79
2024/01/18 19:44:55;;;;;;;390.20;185.80;;;;;;;;;;10326131;28;20057;-80
2024/01/18 19:49:55;;;;;;;826.53;664.90;;;;;;;;;;10323940;28;20135;-78
2024/01/18 19:54:58;;;;;;;270.30;36.33;;;;;;;;;;10342987;28;20032;-76
2024/01/18 20:00:02;;;;;;;879.20;776.10;;;;;;;;;;10344056;28;25055;-75
2024/01/18 20:05:02;;;;;;;661.53;287.60;;;;;;;;;;10317712;28;19917;-79
2024/01/18 20:10:03;;;;;;;856.20;746.27;;;;;;;;;;10325498;28;20022;-78
2024/01/18 20:15:03;;;;;;;835.85;706.30;;;;;;;;;;10333258;28;20304;-79
2024/01/18 20:20:04;;;;;;;812.53;644.13;;;;;;;;;;10288254;28;20038;-82
2024/01/18 20:25:05;;;;;;;656.08;157.60;;;;;;;;;;10319074;28;20036;-79
2024/01/18 20:30:06;;;;;;;590.53;70.60;;;;;;;;;;10315497;28;20034;-78
2024/01/18 20:35:06;;;;;;;669.57;180.63;;;;;;;;;;10318054;28;20088;-79
2024/01/18 20:40:07;;;;;;;495.25;60.60;;;;;;;;;;10312057;28;20467;-78
2024/01/18 20:45:07;;;;;;;756.10;451.40;;;;;;;;;;10309959;28;20092;-78
2024/01/18 20:50:09;;;;;;;665.83;136.30;;;;;;;;;;10314942;28;20106;-83
2024/01/18 20:55:09;;;;;;;770.60;500.73;;;;;;;;;;10302771;28;20330;-79
2024/01/18 21:00:10;;;;;;;748.03;395.13;;;;;;;;;;10290530;28;20045;-80
2024/01/18 21:05:10;;;;;;;774.47;528.88;;;;;;;;;;10308612;28;20026;-78
2024/01/18 21:10:13;;;;;;;748.97;438.83;;;;;;;;;;10307635;28;20021;-83
2024/01/18 21:15:13;;;;;;;749.25;435.27;;;;;;;;;;10324221;28;20053;-79
2024/01/18 21:20:13;;;;;;;738.10;395.67;;;;;;;;;;10336493;28;20068;-81
2024/01/18 21:25:15;;;;;;;777.60;561.80;;;;;;;;;;10332580;28;20566;-80
2024/01/18 21:30:16;;;;;;;669.10;125.90;;;;;;;;;;10351012;28;20269;-76
2024/01/18 21:35:16;;;;;;;767.35;498.73;;;;;;;;;;10333229;28;20574;-78
2024/01/18 21:40:16;;;;;;;474.00;98.05;;;;;;;;;;10324423;28;20025;-77
2024/01/18 21:45:17;;;;;;;812.00;755.50;;;;;;;;;;10331157;28;20034;-77
2024/01/18 21:50:17;;;;;;;928.90;838.63;;;;;;;;;;10344794;28;20034;-78
2024/01/18 21:55:17;;;;;;;930.08;838.50;;;;;;;;;;10335897;28;20041;-78
2024/01/18 22:00:17;;;;;;;931.90;849.55;;;;;;;;;;10342303;28;20025;-77
2024/01/18 22:05:18;;;;;;;904.50;816.58;;;;;;;;;;10347961;28;20366;-76
2024/01/18 22:10:19;;;;;;;919.22;826.20;;;;;;;;;;10323226;28;20030;-78
2024/01/18 22:15:19;;;;;;;872.90;797.17;;;;;;;;;;10334587;28;20141;-78
2024/01/18 22:20:24;;;;;;;922.63;824.97;;;;;;;;;;10316197;28;20037;-82
2024/01/18 22:25:27;;;;;;;772.92;719.70;;;;;;;;;;10311037;28;20155;-81
2024/01/18 22:30:36;;;;;;;803.85;747.65;;;;;;;;;;10311092;28;20085;-82
2024/01/18 22:35:36;;;;;;;823.05;764.28;;;;;;;;;;10275271;28;20038;-75
2024/01/18 22:40:37;;;;;;;857.60;797.05;;;;;;;;;;10301626;28;20037;-78
2024/01/18 22:45:37;;;;;;;886.40;819.47;;;;;;;;;;10322458;28;20041;-75
2024/01/18 22:50:37;;;;;;;853.50;792.70;;;;;;;;;;10308033;28;20174;-86
2024/01/18 22:55:38;;;;;;;869.95;805.17;;;;;;;;;;10316988;28;20739;-82
2024/01/18 23:00:39;;;;;;;874.95;805.65;;;;;;;;;;10304715;28;20026;-81
2024/01/18 23:05:40;;;;;;;853.78;783.78;;;;;;;;;;10317596;28;20085;-79
2024/01/18 23:10:41;;;;;;;876.58;802.53;;;;;;;;;;10297534;28;20038;-79
2024/01/18 23:15:41;;;;;;;900.63;821.00;;;;;;;;;;10343228;28;20088;-78
2024/01/18 23:20:41;;;;;;;896.78;804.22;;;;;;;;;;10339071;28;20186;-78
2024/01/18 23:25:41;;;;;;;878.27;789.90;;;;;;;;;;10337358;28;20067;-79
2024/01/18 23:30:42;;;;;;;847.88;755.42;;;;;;;;;;10338738;28;20123;-77
2024/01/18 23:35:42;;;;;;;888.83;798.53;;;;;;;;;;10360101;28;20037;-78
2024/01/18 23:40:42;;;;;;;868.85;786.53;;;;;;;;;;10359221;28;20053;-79
2024/01/18 23:45:42;;;;;;;836.37;758.53;;;;;;;;;;10360336;28;20040;-78
2024/01/18 23:50:43;;;;;;;845.90;770.80;;;;;;;;;;10350542;28;20152;-81
2024/01/18 23:55:47;;;;;;;857.47;783.10;;;;;;;;;;10361921;28;20877;-84
